sensor_id;sensor_type;location;lat;lon;timestamp;temperature;humidity
9941;DHT22;5009;50.656;7.188;2022-07-24T00:00:48;18.90;99.90
9941;DHT22;5009;50.656;7.188;2022-07-24T00:03:14;18.90;99.90
9941;DHT22;5009;50.656;7.188;2022-07-24T00:05:39;18.90;99.90
9941;DHT22;5009;50.656;7.188;2022-07-24T00:08:05;18.80;99.90
9941;DHT22;5009;50.656;7.188;2022-07-24T00:10:31;18.80;99.90
9941;DHT22;5009;50.656;7.188;2022-07-24T00:12:56;18.80;99.90
9941;DHT22;5009;50.656;7.188;2022-07-24T00:15:22;18.80;99.90
9941;DHT22;5009;50.656;7.188;2022-07-24T00:17:47;18.80;99.90
9941;DHT22;5009;50.656;7.188;2022-07-24T00:20:13;18.80;99.90
9941;DHT22;5009;50.656;7.188;2022-07-24T00:22:39;18.80;99.90
9941;DHT22;5009;50.656;7.188;2022-07-24T00:25:05;18.70;99.90
9941;DHT22;5009;50.656;7.188;2022-07-24T00:27:30;18.70;99.90
9941;DHT22;5009;50.656;7.188;2022-07-24T00:29:56;18.60;99.90
9941;DHT22;5009;50.656;7.188;2022-07-24T00:32:21;18.60;99.90
9941;DHT22;5009;50.656;7.188;2022-07-24T00:34:47;18.60;99.90
9941;DHT22;5009;50.656;7.188;2022-07-24T00:37:13;18.60;99.90
9941;DHT22;5009;50.656;7.188;2022-07-24T00:39:38;18.60;99.90
9941;DHT22;5009;50.656;7.188;2022-07-24T00:42:04;18.50;99.90
9941;DHT22;5009;50.656;7.188;2022-07-24T00:44:29;18.50;99.90
9941;DHT22;5009;50.656;7.188;2022-07-24T00:46:55;18.50;99.90
9941;DHT22;5009;50.656;7.188;2022-07-24T00:49:21;18.50;99.90
9941;DHT22;5009;50.656;7.188;2022-07-24T00:51:48;18.50;99.90
9941;DHT22;5009;50.656;7.188;2022-07-24T00:54:16;18.40;99.90
9941;DHT22;5009;50.656;7.188;2022-07-24T00:56:44;18.50;99.90
9941;DHT22;5009;50.656;7.188;2022-07-24T00:59:10;18.50;99.90
9941;DHT22;5009;50.656;7.188;2022-07-24T01:01:35;18.50;99.90
9941;DHT22;5009;50.656;7.188;2022-07-24T01:04:01;18.40;99.90
9941;DHT22;5009;50.656;7.188;2022-07-24T01:06:27;18.40;99.90
9941;DHT22;5009;50.656;7.188;2022-07-24T01:08:53;18.30;99.90
9941;DHT22;5009;50.656;7.188;2022-07-24T01:11:19;18.30;99.90
9941;DHT22;5009;50.656;7.188;2022-07-24T01:13:47;18.30;99.90
9941;DHT22;5009;50.656;7.188;2022-07-24T01:16:13;18.30;99.90
9941;DHT22;5009;50.656;7.188;2022-07-24T01:18:39;18.20;99.90
9941;DHT22;5009;50.656;7.188;2022-07-24T01:21:05;18.20;99.90
9941;DHT22;5009;50.656;7.188;2022-07-24T01:23:31;18.20;99.90
9941;DHT22;5009;50.656;7.188;2022-07-24T01:25:57;18.10;99.90
9941;DHT22;5009;50.656;7.188;2022-07-24T01:28:22;18.10;99.90
9941;DHT22;5009;50.656;7.188;2022-07-24T01:30:49;18.10;99.90
9941;DHT22;5009;50.656;7.188;2022-07-24T01:33:15;18.10;99.90
9941;DHT22;5009;50.656;7.188;2022-07-24T01:35:44;18.10;99.90
9941;DHT22;5009;50.656;7.188;2022-07-24T01:38:10;18.10;99.90
9941;DHT22;5009;50.656;7.188;2022-07-24T01:40:38;18.10;99.90
9941;DHT22;5009;50.656;7.188;2022-07-24T01:43:04;18.00;99.90
9941;DHT22;5009;50.656;7.188;2022-07-24T01:45:29;18.00;99.90
9941;DHT22;5009;50.656;7.188;2022-07-24T01:47:55;18.00;99.90
9941;DHT22;5009;50.656;7.188;2022-07-24T01:50:21;18.00;99.90
9941;DHT22;5009;50.656;7.188;2022-07-24T01:52:46;18.00;99.90
9941;DHT22;5009;50.656;7.188;2022-07-24T01:55:12;18.00;99.90
9941;DHT22;5009;50.656;7.188;2022-07-24T01:57:38;17.90;99.90
9941;DHT22;5009;50.656;7.188;2022-07-24T02:00:05;17.90;99.90
9941;DHT22;5009;50.656;7.188;2022-07-24T02:02:33;17.90;99.90
9941;DHT22;5009;50.656;7.188;2022-07-24T02:04:59;17.90;99.90
9941;DHT22;5009;50.656;7.188;2022-07-24T02:07:24;17.90;99.90
9941;DHT22;5009;50.656;7.188;2022-07-24T02:09:50;17.90;99.90
9941;DHT22;5009;50.656;7.188;2022-07-24T02:12:15;17.90;99.90
9941;DHT22;5009;50.656;7.188;2022-07-24T02:14:41;17.80;99.90
9941;DHT22;5009;50.656;7.188;2022-07-24T02:17:06;17.80;99.90
9941;DHT22;5009;50.656;7.188;2022-07-24T02:19:32;17.80;99.90
9941;DHT22;5009;50.656;7.188;2022-07-24T02:21:58;17.80;99.90
9941;DHT22;5009;50.656;7.188;2022-07-24T02:24:23;17.80;99.90
9941;DHT22;5009;50.656;7.188;2022-07-24T02:26:49;17.80;99.90
9941;DHT22;5009;50.656;7.188;2022-07-24T02:29:15;17.70;99.90
9941;DHT22;5009;50.656;7.188;2022-07-24T02:31:41;17.80;99.90
9941;DHT22;5009;50.656;7.188;2022-07-24T02:34:06;17.70;99.90
9941;DHT22;5009;50.656;7.188;2022-07-24T02:36:32;17.70;99.90
9941;DHT22;5009;50.656;7.188;2022-07-24T02:38:57;17.60;99.90
9941;DHT22;5009;50.656;7.188;2022-07-24T02:41:23;17.60;99.90
9941;DHT22;5009;50.656;7.188;2022-07-24T02:43:48;17.60;99.90
9941;DHT22;5009;50.656;7.188;2022-07-24T02:46:14;17.60;99.90
9941;DHT22;5009;50.656;7.188;2022-07-24T02:48:39;17.60;99.90
9941;DHT22;5009;50.656;7.188;2022-07-24T02:51:05;17.50;99.90
9941;DHT22;5009;50.656;7.188;2022-07-24T02:53:31;17.60;99.90
9941;DHT22;5009;50.656;7.188;2022-07-24T02:55:56;17.60;99.90
9941;DHT22;5009;50.656;7.188;2022-07-24T02:58:22;17.60;99.90
9941;DHT22;5009;50.656;7.188;2022-07-24T03:00:47;17.50;99.90
9941;DHT22;5009;50.656;7.188;2022-07-24T03:03:13;17.50;99.90
9941;DHT22;5009;50.656;7.188;2022-07-24T03:05:39;17.50;99.90
9941;DHT22;5009;50.656;7.188;2022-07-24T03:08:04;17.50;99.90
9941;DHT22;5009;50.656;7.188;2022-07-24T03:10:30;17.40;99.90
9941;DHT22;5009;50.656;7.188;2022-07-24T03:12:55;17.40;99.90
9941;DHT22;5009;50.656;7.188;2022-07-24T03:15:21;17.30;99.90
9941;DHT22;5009;50.656;7.188;2022-07-24T03:17:55;17.30;99.90
9941;DHT22;5009;50.656;7.188;2022-07-24T03:20:22;17.40;99.90
9941;DHT22;5009;50.656;7.188;2022-07-24T03:22:49;17.40;99.90
9941;DHT22;5009;50.656;7.188;2022-07-24T03:25:15;17.40;99.90
9941;DHT22;5009;50.656;7.188;2022-07-24T03:27:41;17.30;99.90
9941;DHT22;5009;50.656;7.188;2022-07-24T03:30:08;17.30;99.90
9941;DHT22;5009;50.656;7.188;2022-07-24T03:32:34;17.30;99.90
9941;DHT22;5009;50.656;7.188;2022-07-24T03:35:00;17.20;99.90
9941;DHT22;5009;50.656;7.188;2022-07-24T03:37:25;17.20;99.90
9941;DHT22;5009;50.656;7.188;2022-07-24T03:39:51;17.20;99.90
9941;DHT22;5009;50.656;7.188;2022-07-24T03:42:16;17.20;99.90
9941;DHT22;5009;50.656;7.188;2022-07-24T03:44:42;17.20;99.90
9941;DHT22;5009;50.656;7.188;2022-07-24T03:47:07;17.20;99.90
9941;DHT22;5009;50.656;7.188;2022-07-24T03:49:33;17.20;99.90
9941;DHT22;5009;50.656;7.188;2022-07-24T03:51:58;17.20;99.90
9941;DHT22;5009;50.656;7.188;2022-07-24T03:54:24;17.10;99.90
9941;DHT22;5009;50.656;7.188;2022-07-24T03:56:50;17.20;99.90
9941;DHT22;5009;50.656;7.188;2022-07-24T03:59:16;17.10;99.90
9941;DHT22;5009;50.656;7.188;2022-07-24T04:01:42;17.10;99.90
9941;DHT22;5009;50.656;7.188;2022-07-24T04:04:07;17.10;99.90
9941;DHT22;5009;50.656;7.188;2022-07-24T04:06:34;17.10;99.90
9941;DHT22;5009;50.656;7.188;2022-07-24T04:09:00;17.00;99.90
9941;DHT22;5009;50.656;7.188;2022-07-24T04:11:26;17.00;99.90
9941;DHT22;5009;50.656;7.188;2022-07-24T04:13:52;17.00;99.90
9941;DHT22;5009;50.656;7.188;2022-07-24T04:16:18;17.00;99.90
9941;DHT22;5009;50.656;7.188;2022-07-24T04:18:43;17.00;99.90
9941;DHT22;5009;50.656;7.188;2022-07-24T04:21:09;17.00;99.90
9941;DHT22;5009;50.656;7.188;2022-07-24T04:23:34;17.00;99.90
9941;DHT22;5009;50.656;7.188;2022-07-24T04:26:00;17.00;99.90
9941;DHT22;5009;50.656;7.188;2022-07-24T04:28:26;17.00;99.90
9941;DHT22;5009;50.656;7.188;2022-07-24T04:30:52;17.10;99.90
9941;DHT22;5009;50.656;7.188;2022-07-24T04:33:17;17.10;99.90
9941;DHT22;5009;50.656;7.188;2022-07-24T04:35:43;17.20;99.90
9941;DHT22;5009;50.656;7.188;2022-07-24T04:38:08;17.30;99.90
9941;DHT22;5009;50.656;7.188;2022-07-24T04:40:34;17.40;99.90
9941;DHT22;5009;50.656;7.188;2022-07-24T04:42:59;17.50;99.90
9941;DHT22;5009;50.656;7.188;2022-07-24T04:45:25;17.70;99.90
9941;DHT22;5009;50.656;7.188;2022-07-24T04:47:51;17.80;99.90
9941;DHT22;5009;50.656;7.188;2022-07-24T04:50:16;17.90;99.90
9941;DHT22;5009;50.656;7.188;2022-07-24T04:52:42;18.00;99.90
9941;DHT22;5009;50.656;7.188;2022-07-24T04:55:08;18.10;99.90
9941;DHT22;5009;50.656;7.188;2022-07-24T04:57:35;18.30;99.90
9941;DHT22;5009;50.656;7.188;2022-07-24T05:00:01;18.30;99.90
9941;DHT22;5009;50.656;7.188;2022-07-24T05:02:26;18.60;99.90
9941;DHT22;5009;50.656;7.188;2022-07-24T05:04:52;18.90;99.90
9941;DHT22;5009;50.656;7.188;2022-07-24T05:07:17;19.30;99.90
9941;DHT22;5009;50.656;7.188;2022-07-24T05:09:43;19.60;99.90
9941;DHT22;5009;50.656;7.188;2022-07-24T05:12:09;19.90;99.90
9941;DHT22;5009;50.656;7.188;2022-07-24T05:14:34;19.80;99.90
9941;DHT22;5009;50.656;7.188;2022-07-24T05:17:00;20.30;99.90
9941;DHT22;5009;50.656;7.188;2022-07-24T05:19:25;20.70;99.90
9941;DHT22;5009;50.656;7.188;2022-07-24T05:21:51;21.10;99.90
9941;DHT22;5009;50.656;7.188;2022-07-24T05:24:16;21.30;99.90
9941;DHT22;5009;50.656;7.188;2022-07-24T05:26:42;21.50;99.90
9941;DHT22;5009;50.656;7.188;2022-07-24T05:29:07;21.50;99.90
9941;DHT22;5009;50.656;7.188;2022-07-24T05:31:33;21.50;99.90
9941;DHT22;5009;50.656;7.188;2022-07-24T05:33:59;21.30;99.90
9941;DHT22;5009;50.656;7.188;2022-07-24T05:36:27;21.20;99.90
9941;DHT22;5009;50.656;7.188;2022-07-24T05:38:53;21.20;99.90
9941;DHT22;5009;50.656;7.188;2022-07-24T05:41:19;21.40;99.90
9941;DHT22;5009;50.656;7.188;2022-07-24T05:43:44;21.80;99.90
9941;DHT22;5009;50.656;7.188;2022-07-24T05:46:10;22.60;99.00
9941;DHT22;5009;50.656;7.188;2022-07-24T05:48:35;23.10;97.20
9941;DHT22;5009;50.656;7.188;2022-07-24T05:51:01;24.20;95.60
9941;DHT22;5009;50.656;7.188;2022-07-24T05:53:26;25.00;93.50
9941;DHT22;5009;50.656;7.188;2022-07-24T05:55:52;26.20;91.80
9941;DHT22;5009;50.656;7.188;2022-07-24T05:58:18;26.30;90.60
9941;DHT22;5009;50.656;7.188;2022-07-24T06:00:43;27.70;88.00
9941;DHT22;5009;50.656;7.188;2022-07-24T06:03:10;28.50;83.50
9941;DHT22;5009;50.656;7.188;2022-07-24T06:05:35;29.20;80.20
9941;DHT22;5009;50.656;7.188;2022-07-24T06:08:01;30.20;77.20
9941;DHT22;5009;50.656;7.188;2022-07-24T06:10:27;31.20;72.70
9941;DHT22;5009;50.656;7.188;2022-07-24T06:12:53;31.90;67.60
9941;DHT22;5009;50.656;7.188;2022-07-24T06:15:18;32.30;64.70
9941;DHT22;5009;50.656;7.188;2022-07-24T06:17:44;32.30;62.30
9941;DHT22;5009;50.656;7.188;2022-07-24T06:20:10;31.80;61.50
9941;DHT22;5009;50.656;7.188;2022-07-24T06:22:41;32.50;60.80
9941;DHT22;5009;50.656;7.188;2022-07-24T06:25:07;32.90;59.50
9941;DHT22;5009;50.656;7.188;2022-07-24T06:27:33;33.00;59.30
9941;DHT22;5009;50.656;7.188;2022-07-24T06:29:58;33.10;58.10
9941;DHT22;5009;50.656;7.188;2022-07-24T06:32:24;34.20;57.40
9941;DHT22;5009;50.656;7.188;2022-07-24T06:34:50;34.90;55.90
9941;DHT22;5009;50.656;7.188;2022-07-24T06:37:15;35.60;54.30
9941;DHT22;5009;50.656;7.188;2022-07-24T06:39:41;36.20;53.20
9941;DHT22;5009;50.656;7.188;2022-07-24T06:42:06;37.40;51.50
9941;DHT22;5009;50.656;7.188;2022-07-24T06:44:32;38.30;50.10
9941;DHT22;5009;50.656;7.188;2022-07-24T06:46:59;38.30;48.40
9941;DHT22;5009;50.656;7.188;2022-07-24T06:49:24;39.40;48.00
9941;DHT22;5009;50.656;7.188;2022-07-24T06:51:50;40.00;46.50
9941;DHT22;5009;50.656;7.188;2022-07-24T06:54:16;40.60;44.60
9941;DHT22;5009;50.656;7.188;2022-07-24T06:56:42;40.00;43.60
9941;DHT22;5009;50.656;7.188;2022-07-24T06:59:07;40.40;43.00
9941;DHT22;5009;50.656;7.188;2022-07-24T07:01:33;41.00;42.70
9941;DHT22;5009;50.656;7.188;2022-07-24T07:03:58;41.50;42.10
9941;DHT22;5009;50.656;7.188;2022-07-24T07:06:24;42.20;41.80
9941;DHT22;5009;50.656;7.188;2022-07-24T07:08:49;42.50;41.10
9941;DHT22;5009;50.656;7.188;2022-07-24T07:11:15;41.70;39.30
9941;DHT22;5009;50.656;7.188;2022-07-24T07:13:40;41.10;39.80
9941;DHT22;5009;50.656;7.188;2022-07-24T07:16:06;42.00;39.90
9941;DHT22;5009;50.656;7.188;2022-07-24T07:18:32;42.70;39.70
9941;DHT22;5009;50.656;7.188;2022-07-24T07:20:57;42.90;38.80
9941;DHT22;5009;50.656;7.188;2022-07-24T07:23:23;43.20;38.90
9941;DHT22;5009;50.656;7.188;2022-07-24T07:25:51;43.00;38.50
9941;DHT22;5009;50.656;7.188;2022-07-24T07:28:17;42.60;38.10
9941;DHT22;5009;50.656;7.188;2022-07-24T07:30:43;42.00;38.20
9941;DHT22;5009;50.656;7.188;2022-07-24T07:33:08;42.80;38.10
9941;DHT22;5009;50.656;7.188;2022-07-24T07:35:34;43.00;37.60
9941;DHT22;5009;50.656;7.188;2022-07-24T07:37:59;43.40;37.40
9941;DHT22;5009;50.656;7.188;2022-07-24T07:40:25;42.90;37.30
9941;DHT22;5009;50.656;7.188;2022-07-24T07:42:51;43.40;37.30
9941;DHT22;5009;50.656;7.188;2022-07-24T07:45:16;43.70;37.10
9941;DHT22;5009;50.656;7.188;2022-07-24T07:47:42;43.90;37.00
9941;DHT22;5009;50.656;7.188;2022-07-24T07:50:09;44.10;37.10
9941;DHT22;5009;50.656;7.188;2022-07-24T07:52:34;44.40;37.10
9941;DHT22;5009;50.656;7.188;2022-07-24T07:55:00;44.40;36.70
9941;DHT22;5009;50.656;7.188;2022-07-24T07:57:26;44.60;36.80
9941;DHT22;5009;50.656;7.188;2022-07-24T07:59:52;44.30;36.50
9941;DHT22;5009;50.656;7.188;2022-07-24T08:02:17;44.30;36.30
9941;DHT22;5009;50.656;7.188;2022-07-24T08:04:43;43.70;36.30
9941;DHT22;5009;50.656;7.188;2022-07-24T08:07:08;42.00;36.20
9941;DHT22;5009;50.656;7.188;2022-07-24T08:09:34;40.90;36.90
9941;DHT22;5009;50.656;7.188;2022-07-24T08:11:59;40.00;37.50
9941;DHT22;5009;50.656;7.188;2022-07-24T08:14:25;38.90;37.80
9941;DHT22;5009;50.656;7.188;2022-07-24T08:16:51;37.90;37.90
9941;DHT22;5009;50.656;7.188;2022-07-24T08:19:16;37.10;38.50
9941;DHT22;5009;50.656;7.188;2022-07-24T08:21:42;36.70;39.10
9941;DHT22;5009;50.656;7.188;2022-07-24T08:24:07;36.30;39.20
9941;DHT22;5009;50.656;7.188;2022-07-24T08:26:33;35.50;39.30
9941;DHT22;5009;50.656;7.188;2022-07-24T08:28:59;35.00;39.80
9941;DHT22;5009;50.656;7.188;2022-07-24T08:31:26;35.30;40.10
9941;DHT22;5009;50.656;7.188;2022-07-24T08:33:51;35.60;40.70
9941;DHT22;5009;50.656;7.188;2022-07-24T08:36:17;35.90;40.30
9941;DHT22;5009;50.656;7.188;2022-07-24T08:38:42;35.80;40.00
9941;DHT22;5009;50.656;7.188;2022-07-24T08:41:08;35.60;39.90
9941;DHT22;5009;50.656;7.188;2022-07-24T08:43:34;34.80;39.90
9941;DHT22;5009;50.656;7.188;2022-07-24T08:46:00;34.70;40.10
9941;DHT22;5009;50.656;7.188;2022-07-24T08:48:28;35.00;40.40
9941;DHT22;5009;50.656;7.188;2022-07-24T08:50:54;34.40;39.80
9941;DHT22;5009;50.656;7.188;2022-07-24T08:53:22;34.40;39.90
9941;DHT22;5009;50.656;7.188;2022-07-24T08:55:48;34.30;40.00
9941;DHT22;5009;50.656;7.188;2022-07-24T08:58:13;34.70;40.40
9941;DHT22;5009;50.656;7.188;2022-07-24T09:00:39;34.40;41.00
9941;DHT22;5009;50.656;7.188;2022-07-24T09:03:05;34.30;40.40
9941;DHT22;5009;50.656;7.188;2022-07-24T09:05:30;34.50;40.40
9941;DHT22;5009;50.656;7.188;2022-07-24T09:08:11;34.50;40.50
9941;DHT22;5009;50.656;7.188;2022-07-24T09:10:37;34.20;40.70
9941;DHT22;5009;50.656;7.188;2022-07-24T09:13:14;34.10;40.70
9941;DHT22;5009;50.656;7.188;2022-07-24T09:15:48;33.80;41.00
9941;DHT22;5009;50.656;7.188;2022-07-24T09:18:34;33.90;40.90
9941;DHT22;5009;50.656;7.188;2022-07-24T09:21:12;33.80;41.20
9941;DHT22;5009;50.656;7.188;2022-07-24T09:23:38;33.70;40.90
9941;DHT22;5009;50.656;7.188;2022-07-24T09:26:04;33.70;41.20
9941;DHT22;5009;50.656;7.188;2022-07-24T09:28:54;33.80;41.20
9941;DHT22;5009;50.656;7.188;2022-07-24T09:31:20;33.60;41.10
9941;DHT22;5009;50.656;7.188;2022-07-24T09:33:49;33.80;41.50
9941;DHT22;5009;50.656;7.188;2022-07-24T09:36:16;33.60;41.40
9941;DHT22;5009;50.656;7.188;2022-07-24T09:38:51;33.60;41.20
9941;DHT22;5009;50.656;7.188;2022-07-24T09:41:23;32.80;41.30
9941;DHT22;5009;50.656;7.188;2022-07-24T09:44:00;32.90;41.60
9941;DHT22;5009;50.656;7.188;2022-07-24T09:46:26;32.40;41.30
9941;DHT22;5009;50.656;7.188;2022-07-24T09:48:54;32.40;41.80
9941;DHT22;5009;50.656;7.188;2022-07-24T09:51:21;32.00;41.80
9941;DHT22;5009;50.656;7.188;2022-07-24T09:53:53;31.90;42.10
9941;DHT22;5009;50.656;7.188;2022-07-24T09:56:19;32.00;42.00
9941;DHT22;5009;50.656;7.188;2022-07-24T10:01:11;31.90;42.00
9941;DHT22;5009;50.656;7.188;2022-07-24T10:03:38;32.10;42.20
9941;DHT22;5009;50.656;7.188;2022-07-24T10:06:07;32.10;42.20
9941;DHT22;5009;50.656;7.188;2022-07-24T10:08:34;32.10;42.30
9941;DHT22;5009;50.656;7.188;2022-07-24T10:11:01;32.20;42.40
9941;DHT22;5009;50.656;7.188;2022-07-24T10:13:27;32.10;42.00
9941;DHT22;5009;50.656;7.188;2022-07-24T10:16:15;31.50;41.90
9941;DHT22;5009;50.656;7.188;2022-07-24T10:18:53;31.30;42.30
9941;DHT22;5009;50.656;7.188;2022-07-24T10:26:33;31.70;43.00
9941;DHT22;5009;50.656;7.188;2022-07-24T10:29:06;31.80;43.10
9941;DHT22;5009;50.656;7.188;2022-07-24T10:31:37;31.80;43.20
9941;DHT22;5009;50.656;7.188;2022-07-24T10:34:06;31.60;42.30
9941;DHT22;5009;50.656;7.188;2022-07-24T10:36:43;31.70;42.80
9941;DHT22;5009;50.656;7.188;2022-07-24T10:39:38;31.50;43.20
9941;DHT22;5009;50.656;7.188;2022-07-24T10:42:06;31.30;43.00
9941;DHT22;5009;50.656;7.188;2022-07-24T10:44:32;31.10;43.50
9941;DHT22;5009;50.656;7.188;2022-07-24T10:47:09;31.10;43.00
9941;DHT22;5009;50.656;7.188;2022-07-24T10:49:40;30.90;43.20
9941;DHT22;5009;50.656;7.188;2022-07-24T10:52:30;30.90;43.40
9941;DHT22;5009;50.656;7.188;2022-07-24T10:55:26;30.70;43.10
9941;DHT22;5009;50.656;7.188;2022-07-24T11:00:33;30.50;43.40
9941;DHT22;5009;50.656;7.188;2022-07-24T11:03:05;30.60;43.70
9941;DHT22;5009;50.656;7.188;2022-07-24T11:05:36;30.70;43.80
9941;DHT22;5009;50.656;7.188;2022-07-24T11:10:54;30.70;43.10
9941;DHT22;5009;50.656;7.188;2022-07-24T11:18:39;30.60;43.80
9941;DHT22;5009;50.656;7.188;2022-07-24T11:21:05;30.60;43.50
9941;DHT22;5009;50.656;7.188;2022-07-24T11:23:31;30.40;43.60
9941;DHT22;5009;50.656;7.188;2022-07-24T11:29:28;30.50;43.90
9941;DHT22;5009;50.656;7.188;2022-07-24T11:31:58;30.30;43.70
9941;DHT22;5009;50.656;7.188;2022-07-24T11:34:26;30.20;43.60
9941;DHT22;5009;50.656;7.188;2022-07-24T11:36:53;30.10;44.30
9941;DHT22;5009;50.656;7.188;2022-07-24T11:39:25;30.20;44.10
9941;DHT22;5009;50.656;7.188;2022-07-24T11:41:52;30.00;43.90
9941;DHT22;5009;50.656;7.188;2022-07-24T11:44:30;30.00;43.90
9941;DHT22;5009;50.656;7.188;2022-07-24T11:47:08;30.00;44.20
9941;DHT22;5009;50.656;7.188;2022-07-24T11:49:43;30.00;44.30
9941;DHT22;5009;50.656;7.188;2022-07-24T11:52:17;30.00;44.20
9941;DHT22;5009;50.656;7.188;2022-07-24T11:54:43;30.10;44.30
9941;DHT22;5009;50.656;7.188;2022-07-24T11:59:49;30.10;43.90
9941;DHT22;5009;50.656;7.188;2022-07-24T12:02:16;30.10;43.80
9941;DHT22;5009;50.656;7.188;2022-07-24T12:04:43;30.00;43.60
9941;DHT22;5009;50.656;7.188;2022-07-24T12:07:11;30.10;43.70
9941;DHT22;5009;50.656;7.188;2022-07-24T12:12:39;30.30;44.70
9941;DHT22;5009;50.656;7.188;2022-07-24T12:17:34;30.40;43.70
9941;DHT22;5009;50.656;7.188;2022-07-24T12:20:02;30.50;44.40
9941;DHT22;5009;50.656;7.188;2022-07-24T12:22:30;30.40;43.60
9941;DHT22;5009;50.656;7.188;2022-07-24T12:24:57;30.50;44.30
9941;DHT22;5009;50.656;7.188;2022-07-24T12:27:34;30.50;43.40
9941;DHT22;5009;50.656;7.188;2022-07-24T12:29:59;30.40;43.50
9941;DHT22;5009;50.656;7.188;2022-07-24T12:32:25;30.40;43.80
9941;DHT22;5009;50.656;7.188;2022-07-24T12:34:52;30.30;43.60
9941;DHT22;5009;50.656;7.188;2022-07-24T12:37:20;30.40;43.70
9941;DHT22;5009;50.656;7.188;2022-07-24T12:39:51;30.40;43.90
9941;DHT22;5009;50.656;7.188;2022-07-24T12:42:18;30.30;43.40
9941;DHT22;5009;50.656;7.188;2022-07-24T12:44:53;30.30;43.50
9941;DHT22;5009;50.656;7.188;2022-07-24T12:47:19;30.20;43.60
9941;DHT22;5009;50.656;7.188;2022-07-24T12:49:45;30.20;43.60
9941;DHT22;5009;50.656;7.188;2022-07-24T12:52:25;30.20;43.40
9941;DHT22;5009;50.656;7.188;2022-07-24T12:54:53;30.20;43.50
9941;DHT22;5009;50.656;7.188;2022-07-24T12:57:22;30.30;44.00
9941;DHT22;5009;50.656;7.188;2022-07-24T12:59:49;30.20;43.60
9941;DHT22;5009;50.656;7.188;2022-07-24T13:04:45;30.20;43.30
9941;DHT22;5009;50.656;7.188;2022-07-24T13:07:11;30.30;43.60
9941;DHT22;5009;50.656;7.188;2022-07-24T13:09:37;30.40;43.70
9941;DHT22;5009;50.656;7.188;2022-07-24T13:12:04;30.40;43.70
9941;DHT22;5009;50.656;7.188;2022-07-24T13:14:30;30.40;43.60
9941;DHT22;5009;50.656;7.188;2022-07-24T13:17:03;30.50;43.70
9941;DHT22;5009;50.656;7.188;2022-07-24T13:19:29;30.50;43.40
9941;DHT22;5009;50.656;7.188;2022-07-24T13:21:54;30.50;43.50
9941;DHT22;5009;50.656;7.188;2022-07-24T13:24:20;30.60;43.30
9941;DHT22;5009;50.656;7.188;2022-07-24T13:26:46;30.60;43.40
9941;DHT22;5009;50.656;7.188;2022-07-24T13:29:12;30.50;43.40
9941;DHT22;5009;50.656;7.188;2022-07-24T13:31:38;30.60;43.00
9941;DHT22;5009;50.656;7.188;2022-07-24T13:34:05;30.60;43.00
9941;DHT22;5009;50.656;7.188;2022-07-24T13:36:32;30.70;43.10
9941;DHT22;5009;50.656;7.188;2022-07-24T13:38:59;30.60;42.90
9941;DHT22;5009;50.656;7.188;2022-07-24T13:41:24;30.60;42.90
9941;DHT22;5009;50.656;7.188;2022-07-24T13:43:50;30.70;42.80
9941;DHT22;5009;50.656;7.188;2022-07-24T13:46:16;30.70;43.30
9941;DHT22;5009;50.656;7.188;2022-07-24T13:48:43;30.70;43.30
9941;DHT22;5009;50.656;7.188;2022-07-24T13:51:09;30.60;43.10
9941;DHT22;5009;50.656;7.188;2022-07-24T13:53:34;30.60;42.60
9941;DHT22;5009;50.656;7.188;2022-07-24T13:56:00;30.60;42.70
9941;DHT22;5009;50.656;7.188;2022-07-24T13:58:26;30.70;42.50
9941;DHT22;5009;50.656;7.188;2022-07-24T14:00:52;30.70;42.50
9941;DHT22;5009;50.656;7.188;2022-07-24T14:03:17;30.70;42.80
9941;DHT22;5009;50.656;7.188;2022-07-24T14:05:43;30.60;42.70
9941;DHT22;5009;50.656;7.188;2022-07-24T14:08:08;30.70;43.20
9941;DHT22;5009;50.656;7.188;2022-07-24T14:10:34;30.70;43.10
9941;DHT22;5009;50.656;7.188;2022-07-24T14:13:00;30.70;42.80
9941;DHT22;5009;50.656;7.188;2022-07-24T14:15:25;30.80;43.00
9941;DHT22;5009;50.656;7.188;2022-07-24T14:17:52;30.80;42.70
9941;DHT22;5009;50.656;7.188;2022-07-24T14:20:18;30.80;42.70
9941;DHT22;5009;50.656;7.188;2022-07-24T14:22:43;30.80;42.80
9941;DHT22;5009;50.656;7.188;2022-07-24T14:25:09;30.80;42.80
9941;DHT22;5009;50.656;7.188;2022-07-24T14:27:35;30.80;42.60
9941;DHT22;5009;50.656;7.188;2022-07-24T14:30:02;30.80;42.50
9941;DHT22;5009;50.656;7.188;2022-07-24T14:32:28;30.90;42.50
9941;DHT22;5009;50.656;7.188;2022-07-24T14:34:54;30.80;42.40
9941;DHT22;5009;50.656;7.188;2022-07-24T14:37:19;30.80;42.40
9941;DHT22;5009;50.656;7.188;2022-07-24T14:39:45;30.80;42.50
9941;DHT22;5009;50.656;7.188;2022-07-24T14:42:10;30.90;42.40
9941;DHT22;5009;50.656;7.188;2022-07-24T14:44:36;30.80;42.40
9941;DHT22;5009;50.656;7.188;2022-07-24T14:47:02;30.80;42.20
9941;DHT22;5009;50.656;7.188;2022-07-24T14:49:31;30.90;42.30
9941;DHT22;5009;50.656;7.188;2022-07-24T14:51:57;30.90;42.20
9941;DHT22;5009;50.656;7.188;2022-07-24T14:54:23;31.00;42.20
9941;DHT22;5009;50.656;7.188;2022-07-24T14:56:49;31.00;42.40
9941;DHT22;5009;50.656;7.188;2022-07-24T14:59:15;30.90;42.20
9941;DHT22;5009;50.656;7.188;2022-07-24T15:01:41;30.90;42.40
9941;DHT22;5009;50.656;7.188;2022-07-24T15:04:07;30.80;42.30
9941;DHT22;5009;50.656;7.188;2022-07-24T15:06:33;30.70;42.20
9941;DHT22;5009;50.656;7.188;2022-07-24T15:08:59;30.80;42.50
9941;DHT22;5009;50.656;7.188;2022-07-24T15:11:25;30.80;42.40
9941;DHT22;5009;50.656;7.188;2022-07-24T15:13:51;30.80;42.30
9941;DHT22;5009;50.656;7.188;2022-07-24T15:16:18;30.90;42.50
9941;DHT22;5009;50.656;7.188;2022-07-24T15:18:43;30.90;42.00
9941;DHT22;5009;50.656;7.188;2022-07-24T15:21:09;30.90;42.10
9941;DHT22;5009;50.656;7.188;2022-07-24T15:23:35;30.90;42.20
9941;DHT22;5009;50.656;7.188;2022-07-24T15:26:02;31.00;42.20
9941;DHT22;5009;50.656;7.188;2022-07-24T15:28:27;31.00;42.10
9941;DHT22;5009;50.656;7.188;2022-07-24T15:30:53;31.10;42.20
9941;DHT22;5009;50.656;7.188;2022-07-24T15:33:19;31.10;42.30
9941;DHT22;5009;50.656;7.188;2022-07-24T15:35:44;31.10;42.10
9941;DHT22;5009;50.656;7.188;2022-07-24T15:38:10;31.00;42.10
9941;DHT22;5009;50.656;7.188;2022-07-24T15:40:36;31.00;41.90
9941;DHT22;5009;50.656;7.188;2022-07-24T15:43:01;31.00;41.80
9941;DHT22;5009;50.656;7.188;2022-07-24T15:45:27;31.10;41.70
9941;DHT22;5009;50.656;7.188;2022-07-24T15:47:53;31.10;41.80
9941;DHT22;5009;50.656;7.188;2022-07-24T15:50:19;31.10;41.80
9941;DHT22;5009;50.656;7.188;2022-07-24T15:52:45;31.00;42.00
9941;DHT22;5009;50.656;7.188;2022-07-24T15:55:11;31.10;41.80
9941;DHT22;5009;50.656;7.188;2022-07-24T15:57:37;31.00;41.50
9941;DHT22;5009;50.656;7.188;2022-07-24T16:00:04;31.00;41.70
9941;DHT22;5009;50.656;7.188;2022-07-24T16:02:30;31.00;41.70
9941;DHT22;5009;50.656;7.188;2022-07-24T16:04:56;31.00;41.80
9941;DHT22;5009;50.656;7.188;2022-07-24T16:07:22;31.00;41.50
9941;DHT22;5009;50.656;7.188;2022-07-24T16:09:48;31.10;41.80
9941;DHT22;5009;50.656;7.188;2022-07-24T16:12:14;31.00;41.70
9941;DHT22;5009;50.656;7.188;2022-07-24T16:14:40;31.00;41.80
9941;DHT22;5009;50.656;7.188;2022-07-24T16:17:06;31.00;41.90
9941;DHT22;5009;50.656;7.188;2022-07-24T16:19:33;31.00;42.00
9941;DHT22;5009;50.656;7.188;2022-07-24T16:21:59;31.00;42.30
9941;DHT22;5009;50.656;7.188;2022-07-24T16:24:26;31.00;42.30
9941;DHT22;5009;50.656;7.188;2022-07-24T16:26:52;31.00;42.50
9941;DHT22;5009;50.656;7.188;2022-07-24T16:29:18;31.00;42.20
9941;DHT22;5009;50.656;7.188;2022-07-24T16:31:44;31.00;42.20